sensor_id;sensor_type;location;lat;lon;timestamp;pressure;altitude;pressure_sealevel;temperature;humidity
84356;BME280;74539;43.518;1.504;2024-03-08T00:01:49;98526.69;;;21.02;38.33
84356;BME280;74539;43.518;1.504;2024-03-08T00:04:15;98535.25;;;21.04;38.08
84356;BME280;74539;43.518;1.504;2024-03-08T00:06:41;98532.09;;;21.02;38.90
84356;BME280;74539;43.518;1.504;2024-03-08T00:09:07;98540.53;;;20.97;38.55
84356;BME280;74539;43.518;1.504;2024-03-08T00:11:35;98544.38;;;20.96;38.73
84356;BME280;74539;43.518;1.504;2024-03-08T00:14:01;98553.75;;;20.98;38.43
84356;BME280;74539;43.518;1.504;2024-03-08T00:16:27;98539.38;;;20.98;38.30
84356;BME280;74539;43.518;1.504;2024-03-08T00:18:52;98545.97;;;20.97;38.77
84356;BME280;74539;43.518;1.504;2024-03-08T00:21:18;98550.59;;;20.96;38.66
84356;BME280;74539;43.518;1.504;2024-03-08T00:23:44;98538.94;;;20.96;39.27
84356;BME280;74539;43.518;1.504;2024-03-08T00:26:09;98521.09;;;20.95;38.50
84356;BME280;74539;43.518;1.504;2024-03-08T00:28:35;98527.66;;;20.94;38.29
84356;BME280;74539;43.518;1.504;2024-03-08T00:31:00;98517.91;;;20.93;38.72
84356;BME280;74539;43.518;1.504;2024-03-08T00:33:26;98510.94;;;20.92;38.86
84356;BME280;74539;43.518;1.504;2024-03-08T00:35:56;98506.53;;;20.87;38.74
84356;BME280;74539;43.518;1.504;2024-03-08T00:38:22;98500.78;;;20.89;38.31
84356;BME280;74539;43.518;1.504;2024-03-08T00:40:48;98496.03;;;20.86;38.37
84356;BME280;74539;43.518;1.504;2024-03-08T00:43:13;98500.31;;;20.87;38.87
84356;BME280;74539;43.518;1.504;2024-03-08T00:45:41;98490.94;;;20.84;38.19
84356;BME280;74539;43.518;1.504;2024-03-08T00:48:09;98484.41;;;20.85;38.23
84356;BME280;74539;43.518;1.504;2024-03-08T00:50:36;98477.38;;;20.84;38.17
84356;BME280;74539;43.518;1.504;2024-03-08T00:53:02;98492.09;;;20.83;39.03
84356;BME280;74539;43.518;1.504;2024-03-08T00:55:28;98490.53;;;20.82;38.55
84356;BME280;74539;43.518;1.504;2024-03-08T00:57:54;98488.16;;;20.80;38.20
84356;BME280;74539;43.518;1.504;2024-03-08T01:00:20;98499.78;;;20.81;38.12
84356;BME280;74539;43.518;1.504;2024-03-08T01:02:46;98507.16;;;20.80;39.04
84356;BME280;74539;43.518;1.504;2024-03-08T01:05:13;98490.44;;;20.78;38.30
84356;BME280;74539;43.518;1.504;2024-03-08T01:07:38;98501.28;;;20.78;39.12
84356;BME280;74539;43.518;1.504;2024-03-08T01:10:04;98498.56;;;20.78;38.83
84356;BME280;74539;43.518;1.504;2024-03-08T01:12:35;98493.13;;;20.78;39.00
84356;BME280;74539;43.518;1.504;2024-03-08T01:15:00;98493.50;;;20.77;38.56
84356;BME280;74539;43.518;1.504;2024-03-08T01:17:26;98489.56;;;20.74;38.17
84356;BME280;74539;43.518;1.504;2024-03-08T01:19:52;98477.91;;;20.74;38.42
84356;BME280;74539;43.518;1.504;2024-03-08T01:22:19;98488.78;;;20.74;38.58
84356;BME280;74539;43.518;1.504;2024-03-08T01:24:45;98480.19;;;20.72;38.44
84356;BME280;74539;43.518;1.504;2024-03-08T01:27:11;98473.53;;;20.69;39.29
84356;BME280;74539;43.518;1.504;2024-03-08T01:29:37;98476.25;;;20.69;38.19
84356;BME280;74539;43.518;1.504;2024-03-08T01:32:03;98466.53;;;20.68;38.67
84356;BME280;74539;43.518;1.504;2024-03-08T01:34:29;98478.97;;;20.69;38.66
84356;BME280;74539;43.518;1.504;2024-03-08T01:36:55;98463.03;;;20.68;38.43
84356;BME280;74539;43.518;1.504;2024-03-08T01:39:22;98461.47;;;20.67;38.65
84356;BME280;74539;43.518;1.504;2024-03-08T01:41:47;98476.94;;;20.66;38.85
84356;BME280;74539;43.518;1.504;2024-03-08T01:44:13;98452.19;;;20.68;39.25
84356;BME280;74539;43.518;1.504;2024-03-08T01:46:44;98455.22;;;20.66;38.88
84356;BME280;74539;43.518;1.504;2024-03-08T01:49:11;98448.59;;;20.64;39.05
84356;BME280;74539;43.518;1.504;2024-03-08T01:51:39;98439.25;;;20.61;38.97
84356;BME280;74539;43.518;1.504;2024-03-08T01:54:06;98446.69;;;20.64;38.30
84356;BME280;74539;43.518;1.504;2024-03-08T01:56:32;98438.09;;;20.62;38.60
84356;BME280;74539;43.518;1.504;2024-03-08T01:58:59;98429.94;;;20.62;38.73
84356;BME280;74539;43.518;1.504;2024-03-08T02:01:25;98430.66;;;20.59;38.65
84356;BME280;74539;43.518;1.504;2024-03-08T02:03:51;98413.22;;;20.60;38.53
84356;BME280;74539;43.518;1.504;2024-03-08T02:06:16;98418.31;;;20.62;38.63
84356;BME280;74539;43.518;1.504;2024-03-08T02:08:43;98395.38;;;20.59;39.10
84356;BME280;74539;43.518;1.504;2024-03-08T02:11:12;98386.78;;;20.57;38.83
84356;BME280;74539;43.518;1.504;2024-03-08T02:13:38;98386.00;;;20.56;38.99
84356;BME280;74539;43.518;1.504;2024-03-08T02:16:04;98380.94;;;20.55;39.09
84356;BME280;74539;43.518;1.504;2024-03-08T02:18:33;98374.38;;;20.56;38.86
84356;BME280;74539;43.518;1.504;2024-03-08T02:21:05;98371.22;;;20.54;38.76
84356;BME280;74539;43.518;1.504;2024-03-08T02:23:32;98360.38;;;20.54;38.28
84356;BME280;74539;43.518;1.504;2024-03-08T02:25:58;98353.38;;;20.53;39.11
84356;BME280;74539;43.518;1.504;2024-03-08T02:28:24;98353.38;;;20.53;38.33
84356;BME280;74539;43.518;1.504;2024-03-08T02:30:54;98350.19;;;20.51;38.53
84356;BME280;74539;43.518;1.504;2024-03-08T02:33:21;98350.19;;;20.51;38.61
84356;BME280;74539;43.518;1.504;2024-03-08T02:35:48;98340.81;;;20.48;38.64
84356;BME280;74539;43.518;1.504;2024-03-08T02:38:18;98331.91;;;20.48;39.11
84356;BME280;74539;43.518;1.504;2024-03-08T02:40:45;98337.34;;;20.48;38.64
84356;BME280;74539;43.518;1.504;2024-03-08T02:43:13;98324.56;;;20.48;38.52
84356;BME280;74539;43.518;1.504;2024-03-08T02:45:40;98321.75;;;20.45;38.53
84356;BME280;74539;43.518;1.504;2024-03-08T02:48:07;98333.06;;;20.47;38.48
84356;BME280;74539;43.518;1.504;2024-03-08T02:50:34;98337.34;;;20.48;38.62
84356;BME280;74539;43.518;1.504;2024-03-08T02:53:03;98324.47;;;20.45;38.85
84356;BME280;74539;43.518;1.504;2024-03-08T02:55:29;98313.22;;;20.43;38.44
84356;BME280;74539;43.518;1.504;2024-03-08T02:57:56;98315.09;;;20.42;37.84
84356;BME280;74539;43.518;1.504;2024-03-08T03:00:22;98318.97;;;20.41;38.70
84356;BME280;74539;43.518;1.504;2024-03-08T03:02:49;98327.56;;;20.43;38.87
84356;BME280;74539;43.518;1.504;2024-03-08T03:05:20;98323.94;;;20.39;38.76
84356;BME280;74539;43.518;1.504;2024-03-08T03:07:45;98308.50;;;20.40;38.78
84356;BME280;74539;43.518;1.504;2024-03-08T03:10:11;98295.72;;;20.40;39.00
84356;BME280;74539;43.518;1.504;2024-03-08T03:12:37;98317.41;;;20.40;38.97
84356;BME280;74539;43.518;1.504;2024-03-08T03:15:04;98315.81;;;20.39;38.54
84356;BME280;74539;43.518;1.504;2024-03-08T03:17:30;98316.19;;;20.38;39.04
84356;BME280;74539;43.518;1.504;2024-03-08T03:19:55;98307.97;;;20.34;38.79
84356;BME280;74539;43.518;1.504;2024-03-08T03:22:21;98298.69;;;20.35;38.95
84356;BME280;74539;43.518;1.504;2024-03-08T03:24:47;98304.88;;;20.35;38.72
84356;BME280;74539;43.518;1.504;2024-03-08T03:27:15;98308.31;;;20.32;38.85
84356;BME280;74539;43.518;1.504;2024-03-08T03:29:42;98300.88;;;20.29;39.16
84356;BME280;74539;43.518;1.504;2024-03-08T03:32:11;98302.09;;;20.32;38.53
84356;BME280;74539;43.518;1.504;2024-03-08T03:34:38;98284.59;;;20.29;38.65
84356;BME280;74539;43.518;1.504;2024-03-08T03:37:04;98286.19;;;20.30;38.90
84356;BME280;74539;43.518;1.504;2024-03-08T03:39:30;98276.06;;;20.27;39.22
84356;BME280;74539;43.518;1.504;2024-03-08T03:42:14;98245.84;;;20.29;39.04
84356;BME280;74539;43.518;1.504;2024-03-08T03:44:40;98243.50;;;20.27;38.61
84356;BME280;74539;43.518;1.504;2024-03-08T03:47:05;98241.91;;;20.26;38.56
84356;BME280;74539;43.518;1.504;2024-03-08T03:49:32;98246.94;;;20.24;38.99
84356;BME280;74539;43.518;1.504;2024-03-08T03:51:58;98235.63;;;20.22;38.82
84356;BME280;74539;43.518;1.504;2024-03-08T03:54:24;98232.56;;;20.24;38.82
84356;BME280;74539;43.518;1.504;2024-03-08T03:56:50;98230.22;;;20.22;39.02
84356;BME280;74539;43.518;1.504;2024-03-08T03:59:18;98227.50;;;20.22;38.45
84356;BME280;74539;43.518;1.504;2024-03-08T04:01:44;98231.00;;;20.23;38.99
84356;BME280;74539;43.518;1.504;2024-03-08T04:04:10;98229.78;;;20.20;38.20
84356;BME280;74539;43.518;1.504;2024-03-08T04:06:37;98241.78;;;20.19;38.70
84356;BME280;74539;43.518;1.504;2024-03-08T04:09:03;98249.53;;;20.21;38.53
84356;BME280;74539;43.518;1.504;2024-03-08T04:11:30;98254.19;;;20.20;38.74
84356;BME280;74539;43.518;1.504;2024-03-08T04:13:55;98266.19;;;20.19;39.11
84356;BME280;74539;43.518;1.504;2024-03-08T04:16:21;98276.56;;;20.17;38.86
84356;BME280;74539;43.518;1.504;2024-03-08T04:18:47;98277.72;;;20.16;38.58
84356;BME280;74539;43.518;1.504;2024-03-08T04:21:13;98269.59;;;20.16;38.77
84356;BME280;74539;43.518;1.504;2024-03-08T04:23:38;98262.56;;;20.15;39.10
84356;BME280;74539;43.518;1.504;2024-03-08T04:26:05;98271.84;;;20.14;38.88
84356;BME280;74539;43.518;1.504;2024-03-08T04:28:32;98256.28;;;20.11;37.91
84356;BME280;74539;43.518;1.504;2024-03-08T04:30:58;98245.00;;;20.09;39.37
84356;BME280;74539;43.518;1.504;2024-03-08T04:33:26;98247.72;;;20.09;39.00
84356;BME280;74539;43.518;1.504;2024-03-08T04:35:52;98250.09;;;20.10;39.04
84356;BME280;74539;43.518;1.504;2024-03-08T04:38:18;98247.72;;;20.09;38.47
84356;BME280;74539;43.518;1.504;2024-03-08T04:40:44;98253.94;;;20.09;38.14
84356;BME280;74539;43.518;1.504;2024-03-08T04:43:10;98246.16;;;20.08;38.48
84356;BME280;74539;43.518;1.504;2024-03-08T04:45:36;98246.16;;;20.08;38.23
84356;BME280;74539;43.518;1.504;2024-03-08T04:48:02;98240.72;;;20.08;39.93
84356;BME280;74539;43.518;1.504;2024-03-08T04:50:28;98229.03;;;20.04;39.40
84356;BME280;74539;43.518;1.504;2024-03-08T04:52:55;98226.41;;;20.07;39.17
84356;BME280;74539;43.518;1.504;2024-03-08T04:55:20;98215.03;;;20.02;38.82
84356;BME280;74539;43.518;1.504;2024-03-08T04:57:47;98214.31;;;20.05;38.90
84356;BME280;74539;43.518;1.504;2024-03-08T05:00:13;98208.03;;;20.01;38.93
84356;BME280;74539;43.518;1.504;2024-03-08T05:02:41;98203.03;;;20.03;38.97
84356;BME280;74539;43.518;1.504;2024-03-08T05:05:07;98198.00;;;20.01;38.51
84356;BME280;74539;43.518;1.504;2024-03-08T05:07:36;98204.97;;;20.02;38.97
84356;BME280;74539;43.518;1.504;2024-03-08T05:10:01;98195.28;;;20.01;38.64
84356;BME280;74539;43.518;1.504;2024-03-08T05:12:27;98187.06;;;19.98;38.41
84356;BME280;74539;43.518;1.504;2024-03-08T05:14:53;98183.22;;;19.99;38.63
84356;BME280;74539;43.518;1.504;2024-03-08T05:17:19;98183.22;;;19.99;38.54
84356;BME280;74539;43.518;1.504;2024-03-08T05:19:45;98178.56;;;19.99;39.05
84356;BME280;74539;43.518;1.504;2024-03-08T05:22:11;98168.09;;;19.98;39.29
84356;BME280;74539;43.518;1.504;2024-03-08T05:24:36;98163.78;;;19.97;38.99
84356;BME280;74539;43.518;1.504;2024-03-08T05:27:02;98162.22;;;19.96;38.51
84356;BME280;74539;43.518;1.504;2024-03-08T05:29:29;98155.59;;;19.93;38.77
84356;BME280;74539;43.518;1.504;2024-03-08T05:31:55;98161.44;;;19.95;38.72
84356;BME280;74539;43.518;1.504;2024-03-08T05:34:22;98147.03;;;19.91;39.24
84356;BME280;74539;43.518;1.504;2024-03-08T05:36:50;98157.53;;;19.93;38.76
84356;BME280;74539;43.518;1.504;2024-03-08T05:39:17;98145.81;;;19.88;38.86
84356;BME280;74539;43.518;1.504;2024-03-08T05:41:44;98149.31;;;19.89;39.39
84356;BME280;74539;43.518;1.504;2024-03-08T05:44:11;98158.28;;;19.93;38.96
84356;BME280;74539;43.518;1.504;2024-03-08T05:46:37;98152.81;;;19.89;39.52
84356;BME280;74539;43.518;1.504;2024-03-08T05:49:03;98169.84;;;19.90;38.80
84356;BME280;74539;43.518;1.504;2024-03-08T05:51:34;98167.84;;;19.87;39.31
84356;BME280;74539;43.518;1.504;2024-03-08T05:54:01;98177.91;;;19.86;38.47
84356;BME280;74539;43.518;1.504;2024-03-08T05:56:28;98176.34;;;19.85;38.84
84356;BME280;74539;43.518;1.504;2024-03-08T05:58:54;98194.16;;;19.86;38.55
84356;BME280;74539;43.518;1.504;2024-03-08T06:01:20;98203.00;;;19.83;38.51
84356;BME280;74539;43.518;1.504;2024-03-08T06:03:45;98193.72;;;19.84;38.86
84356;BME280;74539;43.518;1.504;2024-03-08T06:06:13;98189.00;;;19.81;38.71
84356;BME280;74539;43.518;1.504;2024-03-08T06:08:39;98199.50;;;19.83;39.61
84356;BME280;74539;43.518;1.504;2024-03-08T06:11:04;98197.94;;;19.82;39.48
84356;BME280;74539;43.518;1.504;2024-03-08T06:13:32;98203.69;;;19.80;38.90
84356;BME280;74539;43.518;1.504;2024-03-08T06:15:59;98204.47;;;19.81;39.18
84356;BME280;74539;43.518;1.504;2024-03-08T06:18:26;98198.28;;;19.80;38.53
84356;BME280;74539;43.518;1.504;2024-03-08T06:20:52;98192.78;;;19.77;39.02
84356;BME280;74539;43.518;1.504;2024-03-08T06:23:18;98191.28;;;19.79;39.58
84356;BME280;74539;43.518;1.504;2024-03-08T06:25:44;98189.69;;;19.78;39.22
84356;BME280;74539;43.518;1.504;2024-03-08T06:28:10;98212.53;;;19.77;39.03
84356;BME280;74539;43.518;1.504;2024-03-08T06:30:36;98212.97;;;19.79;39.18
84356;BME280;74539;43.518;1.504;2024-03-08T06:33:01;98213.31;;;19.78;39.08
84356;BME280;74539;43.518;1.504;2024-03-08T06:35:27;98209.03;;;19.77;39.02
84356;BME280;74539;43.518;1.504;2024-03-08T06:37:53;98219.88;;;19.77;39.28
84356;BME280;74539;43.518;1.504;2024-03-08T06:40:18;98205.09;;;19.74;39.86
84356;BME280;74539;43.518;1.504;2024-03-08T06:42:44;98218.72;;;19.78;38.68
84356;BME280;74539;43.518;1.504;2024-03-08T06:45:10;98219.88;;;19.77;39.19
84356;BME280;74539;43.518;1.504;2024-03-08T06:47:37;98210.50;;;19.74;39.67
84356;BME280;74539;43.518;1.504;2024-03-08T06:50:03;98219.09;;;19.76;39.67
84356;BME280;74539;43.518;1.504;2024-03-08T06:52:29;98224.50;;;19.76;39.03
84356;BME280;74539;43.518;1.504;2024-03-08T06:54:55;98234.53;;;19.76;39.15
84356;BME280;74539;43.518;1.504;2024-03-08T06:57:22;98229.94;;;19.76;39.88
84356;BME280;74539;43.518;1.504;2024-03-08T06:59:48;98236.13;;;19.77;39.47
84356;BME280;74539;43.518;1.504;2024-03-08T07:02:14;98246.19;;;19.76;39.53
84356;BME280;74539;43.518;1.504;2024-03-08T07:04:40;98260.84;;;19.75;39.04
84356;BME280;74539;43.518;1.504;2024-03-08T07:07:06;98285.00;;;19.80;39.73
84356;BME280;74539;43.518;1.504;2024-03-08T07:09:38;98276.94;;;19.84;39.32
84356;BME280;74539;43.518;1.504;2024-03-08T07:12:04;98288.69;;;19.88;40.25
84356;BME280;74539;43.518;1.504;2024-03-08T07:14:30;98298.53;;;19.96;40.18
84356;BME280;74539;43.518;1.504;2024-03-08T07:16:56;98282.81;;;20.02;40.05
84356;BME280;74539;43.518;1.504;2024-03-08T07:19:22;98280.63;;;20.07;40.38
84356;BME280;74539;43.518;1.504;2024-03-08T07:21:47;98290.38;;;20.12;40.52
84356;BME280;74539;43.518;1.504;2024-03-08T07:24:13;98283.94;;;20.17;40.80
84356;BME280;74539;43.518;1.504;2024-03-08T07:26:42;98288.03;;;20.26;41.01
84356;BME280;74539;43.518;1.504;2024-03-08T07:29:08;98291.69;;;20.34;40.52
84356;BME280;74539;43.518;1.504;2024-03-08T07:31:34;98273.94;;;20.36;41.23
84356;BME280;74539;43.518;1.504;2024-03-08T07:34:02;98271.81;;;20.46;41.57
84356;BME280;74539;43.518;1.504;2024-03-08T07:36:28;98269.28;;;20.53;41.22
84356;BME280;74539;43.518;1.504;2024-03-08T07:38:54;98269.41;;;20.60;41.13
84356;BME280;74539;43.518;1.504;2024-03-08T07:41:20;98260.66;;;20.67;41.57
84356;BME280;74539;43.518;1.504;2024-03-08T07:43:45;98256.88;;;20.71;41.41
84356;BME280;74539;43.518;1.504;2024-03-08T07:46:11;98260.53;;;20.79;41.02
84356;BME280;74539;43.518;1.504;2024-03-08T07:48:38;98247.44;;;20.85;41.27
84356;BME280;74539;43.518;1.504;2024-03-08T07:51:05;98231.31;;;20.92;41.40
84356;BME280;74539;43.518;1.504;2024-03-08T07:53:31;98232.59;;;20.98;41.48
84356;BME280;74539;43.518;1.504;2024-03-08T07:55:56;98218.75;;;21.03;41.20
84356;BME280;74539;43.518;1.504;2024-03-08T07:58:22;98212.22;;;21.08;41.83
84356;BME280;74539;43.518;1.504;2024-03-08T08:00:50;98196.03;;;21.15;40.98
84356;BME280;74539;43.518;1.504;2024-03-08T08:03:16;98189.53;;;21.19;41.42
84356;BME280;74539;43.518;1.504;2024-03-08T08:05:46;98202.13;;;21.27;41.56
84356;BME280;74539;43.518;1.504;2024-03-08T08:08:12;98194.44;;;21.33;42.07
84356;BME280;74539;43.518;1.504;2024-03-08T08:10:37;98189.09;;;21.37;41.09
84356;BME280;74539;43.518;1.504;2024-03-08T08:13:03;98197.78;;;21.46;41.07
84356;BME280;74539;43.518;1.504;2024-03-08T08:15:32;98181.97;;;21.52;41.87
84356;BME280;74539;43.518;1.504;2024-03-08T08:18:00;98172.28;;;21.54;41.82
84356;BME280;74539;43.518;1.504;2024-03-08T08:20:25;98175.53;;;21.63;40.56
84356;BME280;74539;43.518;1.504;2024-03-08T08:22:53;98180.31;;;21.70;41.63
84356;BME280;74539;43.518;1.504;2024-03-08T08:25:20;98175.78;;;21.78;41.90
84356;BME280;74539;43.518;1.504;2024-03-08T08:27:48;98164.59;;;21.83;41.83
84356;BME280;74539;43.518;1.504;2024-03-08T08:30:14;98163.91;;;21.89;41.80
84356;BME280;74539;43.518;1.504;2024-03-08T08:32:39;98169.81;;;21.95;41.41
84356;BME280;74539;43.518;1.504;2024-03-08T08:35:07;98169.09;;;21.98;40.84
84356;BME280;74539;43.518;1.504;2024-03-08T08:37:40;98169.59;;;22.07;41.94
84356;BME280;74539;43.518;1.504;2024-03-08T08:40:07;98153.75;;;22.13;41.71
84356;BME280;74539;43.518;1.504;2024-03-08T08:42:40;98171.72;;;22.17;41.36
84356;BME280;74539;43.518;1.504;2024-03-08T08:45:06;98160.94;;;22.25;41.57
84356;BME280;74539;43.518;1.504;2024-03-08T08:47:38;98141.56;;;22.30;41.19
84356;BME280;74539;43.518;1.504;2024-03-08T08:50:04;98139.69;;;22.34;41.04
84356;BME280;74539;43.518;1.504;2024-03-08T08:52:31;98131.59;;;22.41;41.13
84356;BME280;74539;43.518;1.504;2024-03-08T08:54:57;98144.13;;;22.49;40.92
84356;BME280;74539;43.518;1.504;2024-03-08T08:57:23;98141.03;;;22.51;40.79
84356;BME280;74539;43.518;1.504;2024-03-08T08:59:49;98151.25;;;22.57;41.26
84356;BME280;74539;43.518;1.504;2024-03-08T09:02:15;98152.88;;;22.66;41.28
84356;BME280;74539;43.518;1.504;2024-03-08T09:04:42;98169.31;;;22.73;40.55
84356;BME280;74539;43.518;1.504;2024-03-08T09:07:11;98175.56;;;22.77;40.66
84356;BME280;74539;43.518;1.504;2024-03-08T09:09:39;98177.19;;;22.81;41.36
84356;BME280;74539;43.518;1.504;2024-03-08T09:12:04;98177.25;;;22.89;41.54
84356;BME280;74539;43.518;1.504;2024-03-08T09:14:30;98197.50;;;22.91;40.86
84356;BME280;74539;43.518;1.504;2024-03-08T09:16:56;98189.41;;;22.95;40.88
84356;BME280;74539;43.518;1.504;2024-03-08T09:19:21;98201.94;;;23.03;40.64
84356;BME280;74539;43.518;1.504;2024-03-08T09:21:48;98197.66;;;23.05;40.77
84356;BME280;74539;43.518;1.504;2024-03-08T09:24:14;98193.06;;;23.09;40.99
84356;BME280;74539;43.518;1.504;2024-03-08T09:26:39;98188.00;;;23.12;40.88
84356;BME280;74539;43.518;1.504;2024-03-08T09:29:07;98195.41;;;23.11;41.11
84356;BME280;74539;43.518;1.504;2024-03-08T09:31:33;98190.72;;;23.12;40.84
84356;BME280;74539;43.518;1.504;2024-03-08T09:33:59;98189.59;;;23.13;40.99
84356;BME280;74539;43.518;1.504;2024-03-08T09:36:25;98196.19;;;23.12;41.00
84356;BME280;74539;43.518;1.504;2024-03-08T09:38:50;98205.94;;;23.13;40.33
84356;BME280;74539;43.518;1.504;2024-03-08T09:41:16;98202.78;;;23.11;40.75
84356;BME280;74539;43.518;1.504;2024-03-08T09:43:43;98210.97;;;23.11;40.40
84356;BME280;74539;43.518;1.504;2024-03-08T09:46:08;98217.16;;;23.07;40.22
84356;BME280;74539;43.518;1.504;2024-03-08T09:48:36;98221.44;;;23.08;39.68
84356;BME280;74539;43.518;1.504;2024-03-08T09:51:03;98231.94;;;23.06;40.64
84356;BME280;74539;43.518;1.504;2024-03-08T09:53:30;98235.81;;;23.05;39.73
84356;BME280;74539;43.518;1.504;2024-03-08T09:55:56;98235.41;;;23.03;39.68
84356;BME280;74539;43.518;1.504;2024-03-08T09:58:22;98245.88;;;23.01;40.04
84356;BME280;74539;43.518;1.504;2024-03-08T10:01:07;98238.88;;;23.00;39.51
84356;BME280;74539;43.518;1.504;2024-03-08T10:03:33;98236.50;;;22.99;40.25
84356;BME280;74539;43.518;1.504;2024-03-08T10:06:00;98231.41;;;22.94;39.67
84356;BME280;74539;43.518;1.504;2024-03-08T10:08:27;98227.47;;;22.91;39.53
84356;BME280;74539;43.518;1.504;2024-03-08T10:10:55;98209.94;;;22.89;39.45
84356;BME280;74539;43.518;1.504;2024-03-08T10:13:24;98189.66;;;22.86;40.22
84356;BME280;74539;43.518;1.504;2024-03-08T10:15:52;98141.41;;;22.83;39.45
84356;BME280;74539;43.518;1.504;2024-03-08T10:18:18;98101.66;;;22.78;39.79
84356;BME280;74539;43.518;1.504;2024-03-08T10:20:44;98074.41;;;22.75;39.69
84356;BME280;74539;43.518;1.504;2024-03-08T10:23:09;98021.88;;;22.71;40.19
84356;BME280;74539;43.518;1.504;2024-03-08T10:25:36;97983.34;;;22.69;39.71
84356;BME280;74539;43.518;1.504;2024-03-08T10:28:05;97968.53;;;22.62;39.58
84356;BME280;74539;43.518;1.504;2024-03-08T10:30:31;97993.78;;;22.59;40.04
84356;BME280;74539;43.518;1.504;2024-03-08T10:32:58;98048.94;;;22.56;39.40
84356;BME280;74539;43.518;1.504;2024-03-08T10:35:24;98041.97;;;22.55;39.61
84356;BME280;74539;43.518;1.504;2024-03-08T10:37:52;98029.09;;;22.52;40.30
84356;BME280;74539;43.518;1.504;2024-03-08T10:40:25;98031.41;;;22.50;39.78
84356;BME280;74539;43.518;1.504;2024-03-08T10:42:58;98043.81;;;22.48;39.36
84356;BME280;74539;43.518;1.504;2024-03-08T10:50:36;98098.19;;;22.44;39.96
84356;BME280;74539;43.518;1.504;2024-03-08T10:53:05;98122.78;;;22.51;40.20
84356;BME280;74539;43.518;1.504;2024-03-08T10:55:33;98148.09;;;22.55;39.72
84356;BME280;74539;43.518;1.504;2024-03-08T10:57:59;98155.84;;;22.53;39.43
84356;BME280;74539;43.518;1.504;2024-03-08T11:00:26;98170.38;;;22.64;39.62
84356;BME280;74539;43.518;1.504;2024-03-08T11:02:53;98184.44;;;22.70;39.51
84356;BME280;74539;43.518;1.504;2024-03-08T11:05:51;98182.16;;;22.76;39.33
84356;BME280;74539;43.518;1.504;2024-03-08T11:08:18;98171.31;;;22.79;39.50
84356;BME280;74539;43.518;1.504;2024-03-08T11:10:55;98162.00;;;22.84;39.86
84356;BME280;74539;43.518;1.504;2024-03-08T11:13:37;98162.09;;;22.91;39.31
84356;BME280;74539;43.518;1.504;2024-03-08T11:18:49;98191.41;;;23.01;39.83
84356;BME280;74539;43.518;1.504;2024-03-08T11:21:14;98189.50;;;23.05;39.26
84356;BME280;74539;43.518;1.504;2024-03-08T11:23:40;98202.00;;;23.10;39.71
84356;BME280;74539;43.518;1.504;2024-03-08T11:26:20;98197.00;;;23.12;39.94
84356;BME280;74539;43.518;1.504;2024-03-08T11:28:46;98202.13;;;23.21;39.48
84356;BME280;74539;43.518;1.504;2024-03-08T11:33:40;98201.81;;;23.29;39.50
84356;BME280;74539;43.518;1.504;2024-03-08T11:36:27;98204.19;;;23.35;40.41
84356;BME280;74539;43.518;1.504;2024-03-08T11:38:52;98205.81;;;23.39;40.24
84356;BME280;74539;43.518;1.504;2024-03-08T11:41:20;98208.94;;;23.41;40.09
84356;BME280;74539;43.518;1.504;2024-03-08T11:43:47;98205.44;;;23.44;39.38
84356;BME280;74539;43.518;1.504;2024-03-08T11:46:15;98209.00;;;23.48;39.59
84356;BME280;74539;43.518;1.504;2024-03-08T11:48:42;98193.47;;;23.52;40.14
84356;BME280;74539;43.518;1.504;2024-03-08T11:51:13;98193.91;;;23.58;39.79
84356;BME280;74539;43.518;1.504;2024-03-08T11:53:39;98197.81;;;23.61;39.65
84356;BME280;74539;43.518;1.504;2024-03-08T11:56:07;98202.13;;;23.65;39.47
84356;BME280;74539;43.518;1.504;2024-03-08T11:58:34;98201.41;;;23.72;40.02
84356;BME280;74539;43.518;1.504;2024-03-08T12:01:05;98188.88;;;23.64;39.26
84356;BME280;74539;43.518;1.504;2024-03-08T12:03:31;98204.59;;;23.81;39.88
84356;BME280;74539;43.518;1.504;2024-03-08T12:06:00;98193.75;;;23.85;39.71
84356;BME280;74539;43.518;1.504;2024-03-08T12:08:27;98192.59;;;23.89;38.81
84356;BME280;74539;43.518;1.504;2024-03-08T12:10:56;98194.56;;;23.92;39.21
84356;BME280;74539;43.518;1.504;2024-03-08T12:13:29;98179.78;;;23.93;39.30
84356;BME280;74539;43.518;1.504;2024-03-08T12:16:00;98181.38;;;24.02;39.46
84356;BME280;74539;43.518;1.504;2024-03-08T12:18:33;98168.16;;;24.04;38.99
84356;BME280;74539;43.518;1.504;2024-03-08T12:23:33;98167.41;;;24.14;39.17
84356;BME280;74539;43.518;1.504;2024-03-08T12:26:15;98155.34;;;24.15;38.92
84356;BME280;74539;43.518;1.504;2024-03-08T12:28:43;98174.06;;;24.20;39.26
84356;BME280;74539;43.518;1.504;2024-03-08T12:31:13;98170.56;;;24.19;39.11
84356;BME280;74539;43.518;1.504;2024-03-08T12:33:52;98167.06;;;24.19;38.42
84356;BME280;74539;43.518;1.504;2024-03-08T12:36:20;98168.22;;;24.18;38.73
84356;BME280;74539;43.518;1.504;2024-03-08T12:38:46;98159.63;;;24.16;39.04
84356;BME280;74539;43.518;1.504;2024-03-08T12:41:16;98159.63;;;24.16;38.43
84356;BME280;74539;43.518;1.504;2024-03-08T12:43:45;98160.81;;;24.15;38.57
84356;BME280;74539;43.518;1.504;2024-03-08T12:46:15;98162.72;;;24.11;38.30
84356;BME280;74539;43.518;1.504;2024-03-08T12:48:40;98151.44;;;24.09;38.38
84356;BME280;74539;43.518;1.504;2024-03-08T12:51:07;98161.94;;;24.10;38.40
84356;BME280;74539;43.518;1.504;2024-03-08T12:53:33;98151.44;;;24.09;38.31
84356;BME280;74539;43.518;1.504;2024-03-08T12:55:58;98140.88;;;24.07;38.76
84356;BME280;74539;43.518;1.504;2024-03-08T12:58:24;98147.09;;;24.04;38.27
84356;BME280;74539;43.518;1.504;2024-03-08T13:00:51;98144.00;;;24.06;38.17
84356;BME280;74539;43.518;1.504;2024-03-08T13:03:17;98133.03;;;23.98;38.55
84356;BME280;74539;43.518;1.504;2024-03-08T13:05:43;98136.16;;;24.00;38.39
84356;BME280;74539;43.518;1.504;2024-03-08T13:08:09;98147.09;;;24.00;38.30
84356;BME280;74539;43.518;1.504;2024-03-08T13:10:39;98142.38;;;23.97;38.08
84356;BME280;74539;43.518;1.504;2024-03-08T13:13:05;98140.84;;;23.96;38.31